createdAt,value
2018-12-02T00:04:05.939Z,9.70
2018-12-02T00:09:08.499Z,11.60
2018-12-02T00:14:11.053Z,8.70
2018-12-02T00:19:13.609Z,8.50
2018-12-02T00:24:16.180Z,10.30
2018-12-02T00:29:18.710Z,7.40
2018-12-02T00:34:21.283Z,9.70
2018-12-02T00:39:23.833Z,9.27
2018-12-02T00:44:26.383Z,9.70
2018-12-02T00:49:28.943Z,8.63
2018-12-02T00:54:31.468Z,8.17
2018-12-02T00:59:34.022Z,9.03
2018-12-02T01:04:36.555Z,12.90
2018-12-02T01:09:39.098Z,10.83
2018-12-02T01:14:41.614Z,7.33
2018-12-02T01:19:44.140Z,6.37
2018-12-02T01:24:46.970Z,7.13
2018-12-02T01:29:49.495Z,9.63
2018-12-02T01:34:52.042Z,6.90
2018-12-02T01:39:54.586Z,7.30
2018-12-02T01:44:57.113Z,7.27
2018-12-02T01:49:59.670Z,6.37
2018-12-02T01:55:02.255Z,6.63
2018-12-02T02:00:10.223Z,6.97
2018-12-02T02:05:13.946Z,6.97
2018-12-02T02:10:17.794Z,7.33
2018-12-02T02:15:20.430Z,6.73
2018-12-02T02:20:23.764Z,6.53
2018-12-02T02:25:26.319Z,5.23
2018-12-02T02:30:29.572Z,6.03
2018-12-02T02:35:32.145Z,6.20
2018-12-02T02:40:34.703Z,7.63
2018-12-02T02:45:37.222Z,6.43
2018-12-02T02:50:39.767Z,8.53
2018-12-02T02:55:42.310Z,7.80
2018-12-02T03:00:44.862Z,6.37
2018-12-02T03:05:47.407Z,6.27
2018-12-02T03:10:49.933Z,5.63
2018-12-02T03:15:52.446Z,7.17
2018-12-02T03:20:55.042Z,5.87
2018-12-02T03:25:57.584Z,6.97
2018-12-02T03:31:00.132Z,5.20
2018-12-02T03:36:02.693Z,6.07
2018-12-02T03:41:05.658Z,6.60
2018-12-02T03:46:09.554Z,5.13
2018-12-02T03:51:10.791Z,5.67
2018-12-02T03:56:16.618Z,5.20
2018-12-02T04:01:19.158Z,4.97
2018-12-02T04:06:21.704Z,4.77
2018-12-02T04:11:24.245Z,4.17
2018-12-02T04:16:26.759Z,4.13
2018-12-02T04:21:29.358Z,4.43
2018-12-02T04:26:31.880Z,5.33
2018-12-02T04:31:34.434Z,3.20
2018-12-02T04:36:36.971Z,2.67
2018-12-02T04:41:39.497Z,3.43
2018-12-02T04:46:42.015Z,4.13
2018-12-02T04:51:44.589Z,3.13
2018-12-02T04:56:47.148Z,4.50
2018-12-02T05:01:49.725Z,3.00
2018-12-02T05:06:52.278Z,2.10
2018-12-02T05:11:54.811Z,2.83
2018-12-02T05:16:57.351Z,1.60
2018-12-02T05:21:59.910Z,2.17
2018-12-02T05:27:02.568Z,1.23
2018-12-02T05:32:05.463Z,3.67
2018-12-02T05:37:07.991Z,2.40
2018-12-02T05:42:16.171Z,2.00
2018-12-02T05:47:18.741Z,2.93
2018-12-02T05:52:21.294Z,2.50
2018-12-02T05:57:23.830Z,3.70
2018-12-02T06:02:26.376Z,2.67
2018-12-02T06:07:28.938Z,2.03
2018-12-02T06:12:31.485Z,2.57
2018-12-02T06:17:34.070Z,4.13
2018-12-02T06:22:36.609Z,3.97
2018-12-02T06:27:39.234Z,3.10
2018-12-02T06:32:41.816Z,6.77
2018-12-02T06:37:44.400Z,3.20
2018-12-02T06:42:46.998Z,2.87
2018-12-02T06:47:49.561Z,2.87
2018-12-02T06:52:52.559Z,4.80
2018-12-02T06:58:12.631Z,4.03
2018-12-02T07:03:53.965Z,3.57
2018-12-02T07:08:56.497Z,5.57
2018-12-02T07:13:59.033Z,3.60
2018-12-02T07:19:01.606Z,5.60
2018-12-02T07:24:06.290Z,3.93
2018-12-02T07:29:08.818Z,4.87
2018-12-02T07:34:11.338Z,3.37
2018-12-02T07:40:19.793Z,3.17
2018-12-02T07:45:22.334Z,3.43
2018-12-02T07:50:24.861Z,2.87
2018-12-02T07:55:27.418Z,4.23
2018-12-02T08:00:30.587Z,2.70
2018-12-02T08:05:33.148Z,2.20
2018-12-02T08:10:35.703Z,2.47
2018-12-02T08:15:38.242Z,1.30
2018-12-02T08:20:40.806Z,2.00
2018-12-02T08:25:43.356Z,3.00
2018-12-02T08:30:45.916Z,2.77
2018-12-02T08:35:48.455Z,2.97
2018-12-02T08:40:51.003Z,1.97
2018-12-02T08:45:53.545Z,2.70
2018-12-02T08:50:56.110Z,1.93
2018-12-02T08:55:58.646Z,2.10
2018-12-02T09:01:01.173Z,3.23
2018-12-02T09:06:03.754Z,1.77
2018-12-02T09:11:06.727Z,1.50
2018-12-02T09:16:09.284Z,1.70
2018-12-02T09:21:11.855Z,2.33
2018-12-02T09:26:14.438Z,3.00
2018-12-02T09:31:17.037Z,2.13
2018-12-02T09:36:19.566Z,1.17
2018-12-02T09:41:22.151Z,1.03
2018-12-02T09:46:24.722Z,0.80
2018-12-02T09:51:27.275Z,2.00
2018-12-02T09:56:29.894Z,1.37
2018-12-02T10:01:32.433Z,1.30
2018-12-02T10:06:34.979Z,1.10
2018-12-02T10:11:37.585Z,1.60
2018-12-02T10:16:40.176Z,4.77
2018-12-02T10:21:42.755Z,1.10
2018-12-02T10:26:45.287Z,0.70
2018-12-02T10:31:47.891Z,0.87
2018-12-02T10:36:50.422Z,1.00
2018-12-02T10:41:53.007Z,2.33
2018-12-02T10:46:55.564Z,1.10
2018-12-02T10:51:58.142Z,0.80
2018-12-02T10:57:00.700Z,0.60
2018-12-02T11:02:08.894Z,0.90
2018-12-02T11:07:11.450Z,0.43
2018-12-02T11:12:14.006Z,0.30
2018-12-02T11:17:16.557Z,0.40
2018-12-02T11:22:19.164Z,1.50
2018-12-02T11:27:21.717Z,0.40
2018-12-02T11:32:24.248Z,1.23
2018-12-02T11:37:26.844Z,0.60
2018-12-02T11:42:29.378Z,0.70
2018-12-02T11:47:31.916Z,1.97
2018-12-02T11:52:34.456Z,1.67
2018-12-02T11:57:37.183Z,0.73
2018-12-02T12:02:39.787Z,0.43
2018-12-02T12:07:42.950Z,0.80
2018-12-02T12:12:46.607Z,0.97
2018-12-02T12:17:49.240Z,0.50
2018-12-02T12:22:51.860Z,1.00
2018-12-02T12:27:55.488Z,0.37
2018-12-02T12:32:58.184Z,0.27
2018-12-02T12:38:00.754Z,0.40
2018-12-02T12:43:26.027Z,0.70
2018-12-02T12:48:28.655Z,1.63
2018-12-02T12:53:31.209Z,6.70
2018-12-02T12:58:33.799Z,3.13
2018-12-02T13:03:36.397Z,4.10
2018-12-02T13:08:38.947Z,0.67
2018-12-02T13:13:41.518Z,1.63
2018-12-02T13:18:44.082Z,0.60
2018-12-02T13:23:46.661Z,0.70
2018-12-02T13:28:49.262Z,0.60
2018-12-02T13:33:51.827Z,1.00
2018-12-02T13:38:54.400Z,0.40
2018-12-02T13:43:57.020Z,0.50
2018-12-02T13:48:59.640Z,0.20
2018-12-02T13:54:07.705Z,1.10
2018-12-02T13:59:10.301Z,0.47
2018-12-02T14:04:12.870Z,0.50
2018-12-02T14:09:15.450Z,0.87
2018-12-02T14:14:18.079Z,0.57
2018-12-02T14:19:20.639Z,0.57
2018-12-02T14:24:23.233Z,0.70
2018-12-02T14:29:30.242Z,0.50
2018-12-02T14:34:32.871Z,1.07
2018-12-02T14:39:36.281Z,5.10
2018-12-02T14:44:38.846Z,1.63
2018-12-02T14:49:41.437Z,1.10
2018-12-02T14:54:44.018Z,1.20
2018-12-02T14:59:46.542Z,3.03
2018-12-02T15:04:49.108Z,1.13
2018-12-02T15:09:51.666Z,0.93
2018-12-02T15:14:54.243Z,0.30
2018-12-02T15:19:57.421Z,0.40
2018-12-02T15:25:00.019Z,1.07
2018-12-02T15:30:02.678Z,3.10
2018-12-02T15:35:06.431Z,2.30
2018-12-02T15:40:11.353Z,1.20
2018-12-02T15:45:14.376Z,1.97
2018-12-02T15:50:19.823Z,1.43
2018-12-02T15:55:30.359Z,0.95
2018-12-02T16:00:34.411Z,0.60
2018-12-02T16:05:37.070Z,0.70
2018-12-02T16:10:39.628Z,4.17
2018-12-02T16:15:42.200Z,2.47
2018-12-02T16:20:46.296Z,0.60
2018-12-02T16:25:48.963Z,1.20
2018-12-02T16:30:53.750Z,2.60
2018-12-02T16:35:56.322Z,1.50
2018-12-02T16:40:58.945Z,3.43
2018-12-02T16:46:01.591Z,0.60
2018-12-02T16:51:04.213Z,4.20
2018-12-02T16:56:09.406Z,0.80
2018-12-02T17:01:15.673Z,0.87
2018-12-02T17:06:18.264Z,2.87
2018-12-02T17:11:20.885Z,1.20
2018-12-02T17:16:23.478Z,0.80
2018-12-02T17:21:26.071Z,1.60
2018-12-02T17:26:28.671Z,8.53
2018-12-02T17:31:34.354Z,1.90
2018-12-02T17:36:36.979Z,1.73
2018-12-02T17:41:40.406Z,0.40
2018-12-02T17:46:43.008Z,0.70
2018-12-02T17:51:45.674Z,2.53
2018-12-02T17:56:48.272Z,6.00
2018-12-02T18:01:50.877Z,0.60
2018-12-02T18:06:54.138Z,1.43
2018-12-02T18:11:56.709Z,0.70
2018-12-02T18:16:59.302Z,2.90
2018-12-02T18:22:01.925Z,1.57
2018-12-02T18:27:04.699Z,1.70
2018-12-02T18:32:07.287Z,1.10
2018-12-02T18:37:10.656Z,0.90
2018-12-02T18:42:13.290Z,1.53
2018-12-02T18:47:15.907Z,2.23
2018-12-02T18:52:18.482Z,0.77
2018-12-02T18:57:21.109Z,1.43
2018-12-02T19:02:23.776Z,1.77
2018-12-02T19:07:27.170Z,1.00
2018-12-02T19:12:29.794Z,1.27
2018-12-02T19:17:32.447Z,1.20
2018-12-02T19:22:35.011Z,1.83
2018-12-02T19:27:37.613Z,1.43
2018-12-02T19:32:40.198Z,1.13
2018-12-02T19:37:43.577Z,0.83
2018-12-02T19:42:47.505Z,0.70
2018-12-02T19:47:50.156Z,0.83
2018-12-02T19:52:52.792Z,0.80
2018-12-02T19:57:55.406Z,1.37
2018-12-02T20:02:58.028Z,1.53
2018-12-02T20:08:01.527Z,4.40
2018-12-02T20:13:14.885Z,1.97
2018-12-02T20:18:17.563Z,2.00
2018-12-02T20:23:26.386Z,1.53
2018-12-02T20:28:46.120Z,2.17
2018-12-02T20:33:48.681Z,2.00
2018-12-02T20:38:51.292Z,0.70
2018-12-02T20:43:53.901Z,1.50
2018-12-02T20:48:56.479Z,1.50
2018-12-02T20:53:59.021Z,1.80
2018-12-02T20:59:01.604Z,1.10
2018-12-02T21:04:07.227Z,2.10
2018-12-02T21:09:09.826Z,3.63
2018-12-02T21:14:12.411Z,1.40
2018-12-02T21:19:15.060Z,1.03
2018-12-02T21:24:17.640Z,0.90
2018-12-02T21:29:20.210Z,0.87
2018-12-02T21:34:22.773Z,0.77
2018-12-02T21:39:25.327Z,0.70
2018-12-02T21:44:27.902Z,2.77
2018-12-02T21:49:30.476Z,0.60
2018-12-02T21:54:33.039Z,0.87
2018-12-02T21:59:36.985Z,0.80
2018-12-02T22:04:39.538Z,0.73
2018-12-02T22:09:42.101Z,0.43
2018-12-02T22:14:44.928Z,0.67
2018-12-02T22:19:47.499Z,0.57
2018-12-02T22:24:57.453Z,1.00
2018-12-02T22:30:00.010Z,3.60
2018-12-02T22:35:02.769Z,2.00
2018-12-02T22:40:23.673Z,0.60
2018-12-02T22:45:27.328Z,1.50
2018-12-02T22:50:29.917Z,1.30
2018-12-02T22:55:32.443Z,0.60
2018-12-02T23:00:40.651Z,0.40
2018-12-02T23:05:44.515Z,0.40
2018-12-02T23:10:47.078Z,0.20
2018-12-02T23:15:49.631Z,0.40
2018-12-02T23:20:52.232Z,1.07
2018-12-02T23:25:54.770Z,0.80
2018-12-02T23:30:57.317Z,2.90
2018-12-02T23:35:59.916Z,0.70
2018-12-02T23:41:02.439Z,0.20
2018-12-02T23:46:05.085Z,0.53
2018-12-02T23:51:07.634Z,0.40
2018-12-02T23:56:10.166Z,0.40
